createdAt,value
2022-07-27T00:01:00.974Z,50.45
2022-07-27T00:03:27.439Z,50.47
2022-07-27T00:05:53.862Z,50.48
2022-07-27T00:08:20.701Z,50.04
2022-07-27T00:10:47.762Z,50.24
2022-07-27T00:13:14.245Z,50.52
2022-07-27T00:15:40.705Z,50.52
2022-07-27T00:18:07.438Z,50.86
2022-07-27T00:20:33.991Z,50.50
2022-07-27T00:23:00.566Z,50.15
2022-07-27T00:25:27.754Z,50.43
2022-07-27T00:27:56.819Z,50.17
2022-07-27T00:30:24.045Z,51.20
2022-07-27T00:32:50.900Z,51.01
2022-07-27T00:35:17.408Z,51.00
2022-07-27T00:37:43.851Z,51.11
2022-07-27T00:40:11.237Z,51.23
2022-07-27T00:42:37.944Z,51.20
2022-07-27T00:45:05.542Z,50.94
2022-07-27T00:47:31.983Z,51.13
2022-07-27T00:49:59.181Z,51.55
2022-07-27T00:52:26.030Z,51.65
2022-07-27T00:54:52.839Z,51.69
2022-07-27T00:57:19.565Z,51.61
2022-07-27T00:59:46.066Z,51.97
2022-07-27T01:02:12.587Z,51.72
2022-07-27T01:04:47.167Z,52.50
2022-07-27T01:07:14.309Z,52.84
2022-07-27T01:09:59.092Z,52.71
2022-07-27T01:12:28.867Z,52.82
2022-07-27T01:14:57.868Z,52.57
2022-07-27T01:17:26.460Z,52.09
2022-07-27T01:19:53.401Z,52.53
2022-07-27T01:22:19.980Z,52.67
2022-07-27T01:24:46.645Z,53.29
2022-07-27T01:27:13.107Z,53.28
2022-07-27T01:29:41.703Z,53.15
2022-07-27T01:32:08.635Z,53.25
2022-07-27T01:34:35.816Z,53.13
2022-07-27T01:37:03.670Z,53.82
2022-07-27T01:39:30.950Z,53.41
2022-07-27T01:41:58.166Z,53.50
2022-07-27T01:44:24.927Z,53.53
2022-07-27T01:46:51.484Z,53.78
2022-07-27T01:49:18.349Z,53.99
2022-07-27T01:51:44.870Z,53.84
2022-07-27T01:54:11.449Z,54.37
2022-07-27T01:56:37.900Z,54.75
2022-07-27T01:59:04.403Z,55.08
2022-07-27T02:01:30.960Z,55.02
2022-07-27T02:03:57.496Z,54.93
2022-07-27T02:06:23.978Z,55.16
2022-07-27T02:08:50.389Z,55.25
2022-07-27T02:11:35.511Z,55.65
2022-07-27T02:14:01.945Z,55.82
2022-07-27T02:16:28.637Z,56.07
2022-07-27T02:18:55.092Z,55.23
2022-07-27T02:21:21.634Z,55.71
2022-07-27T02:23:48.442Z,55.90
2022-07-27T02:26:15.007Z,56.43
2022-07-27T02:28:41.505Z,56.12
2022-07-27T02:31:08.007Z,56.46
2022-07-27T02:33:34.462Z,56.30
2022-07-27T02:36:01.109Z,56.66
2022-07-27T02:38:27.678Z,56.92
2022-07-27T02:40:54.233Z,57.02
2022-07-27T02:43:20.682Z,57.11
2022-07-27T02:45:47.218Z,57.06
2022-07-27T02:48:13.872Z,57.20
2022-07-27T02:50:40.296Z,57.23
2022-07-27T02:53:06.707Z,57.36
2022-07-27T02:55:33.305Z,57.62
2022-07-27T02:57:59.735Z,57.30
2022-07-27T03:00:26.192Z,57.92
2022-07-27T03:02:52.734Z,57.70
2022-07-27T03:05:19.724Z,58.08
2022-07-27T03:07:46.392Z,57.96
2022-07-27T03:10:13.055Z,58.06
2022-07-27T03:12:44.124Z,58.06
2022-07-27T03:15:24.258Z,57.91
2022-07-27T03:18:15.720Z,58.06
2022-07-27T03:20:44.540Z,58.09
2022-07-27T03:23:11.092Z,58.03
2022-07-27T03:25:37.691Z,58.88
2022-07-27T03:28:04.597Z,58.93
2022-07-27T03:30:32.341Z,58.75
2022-07-27T03:32:58.898Z,58.68
2022-07-27T03:35:25.327Z,58.76
2022-07-27T03:37:52.485Z,58.31
2022-07-27T03:40:19.006Z,58.80
2022-07-27T03:42:45.591Z,59.49
2022-07-27T03:45:12.025Z,60.09
2022-07-27T03:47:38.470Z,59.05
2022-07-27T03:50:05.690Z,59.39
2022-07-27T03:52:32.321Z,59.34
2022-07-27T03:54:58.870Z,59.27
2022-07-27T03:57:25.658Z,60.61
2022-07-27T03:59:52.086Z,60.28
2022-07-27T04:02:18.547Z,60.31
2022-07-27T04:04:45.411Z,60.34
2022-07-27T04:07:13.443Z,61.09
2022-07-27T04:09:39.944Z,61.59
2022-07-27T04:12:08.325Z,62.04
2022-07-27T04:14:34.788Z,62.07
2022-07-27T04:17:01.502Z,61.55
2022-07-27T04:19:28.014Z,61.39
2022-07-27T04:21:54.431Z,60.92
2022-07-27T04:24:20.865Z,61.08
2022-07-27T04:26:47.359Z,60.52
2022-07-27T04:29:19.687Z,61.26
2022-07-27T04:31:46.881Z,61.33
2022-07-27T04:34:13.295Z,61.82
2022-07-27T04:36:39.772Z,62.06
2022-07-27T04:39:06.373Z,61.82
2022-07-27T04:41:33.089Z,61.75
2022-07-27T04:44:00.163Z,61.71
2022-07-27T04:46:29.875Z,62.26
2022-07-27T04:48:56.511Z,61.66
2022-07-27T04:51:23.051Z,61.99
2022-07-27T04:53:53.905Z,62.37
2022-07-27T04:56:26.488Z,62.59
2022-07-27T04:58:53.350Z,62.72
2022-07-27T05:01:19.891Z,62.14
2022-07-27T05:03:46.442Z,62.93
2022-07-27T05:06:12.861Z,63.86
2022-07-27T05:08:39.327Z,63.69
2022-07-27T05:11:05.723Z,63.97
2022-07-27T05:13:32.186Z,64.39
2022-07-27T05:15:58.699Z,63.84
2022-07-27T05:18:25.820Z,63.67
2022-07-27T05:20:52.600Z,63.55
2022-07-27T05:23:19.035Z,64.22
2022-07-27T05:25:45.466Z,63.96
2022-07-27T05:28:12.772Z,63.75
2022-07-27T05:30:39.398Z,63.69
2022-07-27T05:33:05.881Z,63.83
2022-07-27T05:35:32.371Z,64.00
2022-07-27T05:37:59.275Z,63.41
2022-07-27T05:40:26.423Z,62.87
2022-07-27T05:42:53.360Z,62.76
2022-07-27T05:45:20.369Z,62.03
2022-07-27T05:47:47.252Z,62.38
2022-07-27T05:50:15.372Z,62.12
2022-07-27T05:52:43.373Z,62.19
2022-07-27T05:55:10.787Z,62.29
2022-07-27T05:57:38.034Z,62.00
2022-07-27T06:00:06.593Z,61.99
2022-07-27T06:02:33.068Z,62.12
2022-07-27T06:04:59.568Z,61.76
2022-07-27T06:07:44.706Z,61.68
2022-07-27T06:10:16.573Z,60.64
2022-07-27T06:12:44.668Z,61.22
2022-07-27T06:15:12.453Z,61.17
2022-07-27T06:17:38.965Z,61.51
2022-07-27T06:20:07.900Z,61.16
2022-07-27T06:22:45.624Z,60.36
2022-07-27T06:25:12.845Z,59.74
2022-07-27T06:27:39.353Z,59.91
2022-07-27T06:30:06.471Z,59.93
2022-07-27T06:32:32.865Z,59.92
2022-07-27T06:35:04.055Z,60.49
2022-07-27T06:37:31.206Z,59.26
2022-07-27T06:39:58.612Z,58.64
2022-07-27T06:42:25.236Z,57.48
2022-07-27T06:44:51.643Z,57.26
2022-07-27T06:47:18.062Z,56.64
2022-07-27T06:49:44.537Z,56.30
2022-07-27T06:52:11.248Z,55.78
2022-07-27T06:54:37.703Z,55.15
2022-07-27T06:57:04.404Z,55.32
2022-07-27T06:59:43.517Z,55.34
2022-07-27T07:02:10.477Z,54.70
2022-07-27T07:04:36.929Z,54.24
2022-07-27T07:07:07.046Z,54.21
2022-07-27T07:09:34.579Z,54.62
2022-07-27T07:12:01.104Z,54.86
2022-07-27T07:14:27.545Z,54.96
2022-07-27T07:16:54.819Z,54.83
2022-07-27T07:19:21.375Z,54.15
2022-07-27T07:21:48.075Z,54.49
2022-07-27T07:24:14.837Z,53.24
2022-07-27T07:26:41.454Z,53.43
2022-07-27T07:29:08.204Z,53.27
2022-07-27T07:31:34.839Z,52.72
2022-07-27T07:34:01.548Z,52.29
2022-07-27T07:36:28.053Z,52.36
2022-07-27T07:38:55.685Z,52.14
2022-07-27T07:41:23.645Z,51.85
2022-07-27T07:43:50.575Z,51.78
2022-07-27T07:46:17.142Z,51.77
2022-07-27T07:48:44.085Z,50.13
2022-07-27T07:51:11.036Z,50.37
2022-07-27T07:53:41.402Z,49.49
2022-07-27T07:56:08.396Z,50.00
2022-07-27T07:58:34.821Z,50.24
2022-07-27T08:01:01.420Z,49.80
2022-07-27T08:03:27.928Z,49.93
2022-07-27T08:05:54.382Z,49.51
2022-07-27T08:08:21.185Z,48.97
2022-07-27T08:10:51.480Z,49.18
2022-07-27T08:13:21.854Z,48.88
2022-07-27T08:15:49.019Z,49.02
2022-07-27T08:18:15.517Z,48.16
2022-07-27T08:20:41.919Z,48.57
2022-07-27T08:23:08.390Z,49.25
2022-07-27T08:25:34.850Z,48.55
2022-07-27T08:28:02.618Z,48.76
2022-07-27T08:30:30.498Z,48.48
2022-07-27T08:33:01.468Z,47.29
2022-07-27T08:35:29.586Z,47.18
2022-07-27T08:37:57.056Z,47.70
2022-07-27T08:43:11.995Z,48.58
2022-07-27T08:45:41.300Z,48.81
2022-07-27T08:48:12.600Z,48.46
2022-07-27T08:50:39.307Z,48.27
2022-07-27T08:53:11.292Z,48.05
2022-07-27T08:55:40.588Z,48.27
2022-07-27T08:58:08.109Z,47.82
2022-07-27T09:00:36.140Z,48.30
2022-07-27T09:03:03.154Z,48.53
2022-07-27T09:05:37.325Z,47.84
2022-07-27T09:08:14.460Z,47.89
2022-07-27T09:10:41.425Z,47.10
2022-07-27T09:13:31.805Z,46.55
2022-07-27T09:16:17.371Z,47.27
2022-07-27T09:18:45.293Z,46.80
2022-07-27T09:21:17.010Z,46.53
2022-07-27T09:24:13.453Z,46.92
2022-07-27T09:27:02.649Z,46.62
2022-07-27T09:29:34.267Z,46.25
2022-07-27T09:32:00.700Z,47.20
2022-07-27T09:34:30.237Z,45.67
2022-07-27T09:36:58.242Z,44.99
2022-07-27T09:39:27.157Z,45.65
2022-07-27T09:41:56.607Z,44.57
2022-07-27T09:44:42.091Z,44.44
2022-07-27T09:47:26.480Z,44.09
2022-07-27T09:49:58.259Z,45.01
2022-07-27T09:52:30.131Z,44.49
2022-07-27T09:55:06.514Z,44.43
2022-07-27T09:57:58.301Z,43.92
2022-07-27T10:00:26.897Z,43.82
2022-07-27T10:02:55.047Z,43.81
2022-07-27T10:05:22.677Z,42.96
2022-07-27T10:07:50.791Z,42.03
2022-07-27T10:10:17.877Z,41.56
2022-07-27T10:12:46.911Z,40.92
2022-07-27T10:15:16.473Z,40.54
2022-07-27T10:17:44.470Z,40.67
2022-07-27T10:20:13.892Z,37.39
2022-07-27T10:22:58.699Z,38.52
2022-07-27T10:25:25.882Z,39.32
2022-07-27T10:28:10.460Z,38.53
2022-07-27T10:30:37.854Z,39.48
2022-07-27T10:33:16.177Z,38.04
2022-07-27T10:35:42.948Z,38.35
2022-07-27T10:38:12.248Z,38.70
2022-07-27T10:40:39.190Z,38.30
2022-07-27T10:43:18.253Z,37.61
2022-07-27T10:45:55.305Z,37.58
2022-07-27T10:48:45.918Z,38.30
2022-07-27T10:51:18.483Z,38.87
2022-07-27T10:56:52.304Z,38.72
2022-07-27T11:02:41.208Z,39.99
2022-07-27T11:05:18.330Z,39.01
2022-07-27T11:08:34.701Z,39.08
2022-07-27T11:10:44.383Z,40.01
2022-07-27T11:13:12.402Z,39.24
2022-07-27T11:15:38.905Z,39.44
2022-07-27T11:18:05.610Z,37.42
2022-07-27T11:20:32.137Z,37.64
2022-07-27T11:23:50.017Z,37.53
2022-07-27T11:26:01.660Z,36.43
2022-07-27T11:28:34.261Z,35.17
2022-07-27T11:31:03.589Z,37.00
2022-07-27T11:33:30.637Z,36.98
2022-07-27T11:35:59.829Z,35.83
2022-07-27T11:38:26.636Z,35.73
2022-07-27T11:40:57.055Z,34.88
2022-07-27T11:43:39.243Z,36.35
2022-07-27T11:46:14.213Z,36.08
2022-07-27T11:49:07.013Z,34.98
2022-07-27T11:51:49.898Z,34.98
2022-07-27T11:54:26.773Z,34.18
2022-07-27T11:57:05.371Z,34.54
2022-07-27T11:59:37.489Z,32.94
2022-07-27T12:02:17.677Z,32.57
2022-07-27T12:04:46.204Z,32.73
2022-07-27T12:07:19.721Z,34.61
2022-07-27T12:09:54.481Z,34.91
2022-07-27T12:12:25.885Z,35.02
2022-07-27T12:14:56.503Z,34.52
2022-07-27T12:17:34.786Z,35.01
2022-07-27T12:20:06.705Z,35.41
2022-07-27T12:22:33.392Z,35.93
2022-07-27T12:25:04.774Z,35.31
2022-07-27T12:27:37.388Z,35.34
2022-07-27T12:30:13.369Z,35.69
2022-07-27T12:32:44.550Z,35.32
2022-07-27T12:35:25.661Z,35.32
2022-07-27T12:38:04.117Z,35.35
2022-07-27T12:40:32.145Z,35.61
2022-07-27T12:43:01.572Z,35.17
2022-07-27T12:45:36.534Z,34.12
2022-07-27T12:48:24.267Z,33.53
2022-07-27T12:51:03.116Z,32.21
2022-07-27T12:53:30.678Z,32.87
2022-07-27T12:55:59.914Z,32.22
2022-07-27T12:58:26.943Z,31.73
2022-07-27T13:00:54.661Z,31.99
2022-07-27T13:03:21.287Z,31.92
2022-07-27T13:05:47.752Z,32.00
2022-07-27T13:08:16.568Z,31.72
2022-07-27T13:10:44.473Z,31.47
2022-07-27T13:13:11.575Z,31.24
2022-07-27T13:15:38.035Z,30.65
2022-07-27T13:18:04.501Z,30.81
2022-07-27T13:20:31.517Z,30.89
2022-07-27T13:22:57.988Z,30.81
2022-07-27T13:25:24.507Z,31.20
2022-07-27T13:27:51.062Z,32.02
2022-07-27T13:30:18.519Z,31.67
2022-07-27T13:32:48.304Z,32.83
2022-07-27T13:35:16.478Z,31.73
2022-07-27T13:37:43.535Z,31.63
2022-07-27T13:40:10.267Z,30.83
2022-07-27T13:42:36.971Z,30.80
2022-07-27T13:45:09.801Z,31.88
2022-07-27T13:47:38.392Z,32.04
2022-07-27T13:50:05.914Z,30.64
2022-07-27T13:52:32.381Z,30.11
2022-07-27T13:54:58.898Z,28.95
2022-07-27T13:57:25.364Z,28.45
2022-07-27T13:59:52.027Z,28.87
2022-07-27T14:02:22.321Z,28.62
2022-07-27T14:04:49.502Z,29.25
2022-07-27T14:07:16.739Z,28.32
2022-07-27T14:10:01.936Z,27.86
2022-07-27T14:12:28.598Z,27.86
2022-07-27T14:14:55.191Z,28.10
2022-07-27T14:17:21.676Z,28.19
2022-07-27T14:19:48.097Z,27.22
2022-07-27T14:22:15.028Z,27.41
2022-07-27T14:24:41.454Z,28.32
2022-07-27T14:27:07.992Z,28.78
2022-07-27T14:29:34.617Z,28.98
2022-07-27T14:32:01.400Z,28.44
2022-07-27T14:34:27.996Z,29.00
2022-07-27T14:36:54.433Z,28.25
2022-07-27T14:39:20.878Z,29.43
2022-07-27T14:41:47.249Z,29.59
2022-07-27T14:44:14.094Z,28.66
2022-07-27T14:46:40.622Z,29.64
2022-07-27T14:49:08.471Z,28.97
2022-07-27T14:51:36.319Z,29.12
2022-07-27T14:54:03.917Z,27.92
2022-07-27T14:56:30.383Z,28.01
2022-07-27T14:58:56.866Z,27.88
2022-07-27T15:01:23.534Z,28.50
2022-07-27T15:03:50.113Z,26.50
2022-07-27T15:06:17.248Z,27.61
2022-07-27T15:08:43.660Z,28.09
2022-07-27T15:11:10.896Z,26.86
2022-07-27T15:13:37.367Z,27.43
2022-07-27T15:16:04.309Z,27.63
2022-07-27T15:18:36.474Z,28.27
2022-07-27T15:21:12.421Z,28.07
2022-07-27T15:23:40.666Z,26.53
2022-07-27T15:26:07.098Z,26.53
2022-07-27T15:28:33.604Z,26.40
2022-07-27T15:31:00.108Z,26.70
2022-07-27T15:33:26.848Z,27.02
2022-07-27T15:35:53.744Z,28.59
2022-07-27T15:38:20.229Z,27.61
2022-07-27T15:40:47.368Z,27.21
2022-07-27T15:43:16.917Z,28.48
2022-07-27T15:45:47.930Z,27.39
2022-07-27T15:48:15.420Z,27.61
2022-07-27T15:50:45.334Z,27.95
2022-07-27T15:53:11.958Z,27.97
2022-07-27T15:55:38.738Z,27.11
2022-07-27T15:58:06.629Z,26.40
2022-07-27T16:00:39.062Z,26.83
2022-07-27T16:03:06.890Z,26.92
2022-07-27T16:05:33.453Z,25.88
2022-07-27T16:07:59.946Z,26.76
2022-07-27T16:10:27.470Z,27.31
2022-07-27T16:12:53.852Z,28.21
2022-07-27T16:15:40.258Z,27.66
2022-07-27T16:18:08.370Z,27.78
2022-07-27T16:20:34.790Z,29.06
2022-07-27T16:23:01.184Z,28.91
2022-07-27T16:25:53.259Z,29.56
2022-07-27T16:28:14.720Z,29.23
2022-07-27T16:30:41.118Z,29.37
2022-07-27T16:33:07.814Z,28.88
2022-07-27T16:35:34.205Z,28.93
2022-07-27T16:38:01.083Z,28.88
2022-07-27T16:40:27.456Z,28.37
2022-07-27T16:42:53.901Z,29.95
2022-07-27T16:45:20.341Z,29.97
2022-07-27T16:47:46.750Z,30.17
2022-07-27T16:50:13.160Z,30.47
2022-07-27T16:52:39.586Z,30.52
2022-07-27T16:55:06.463Z,30.82
2022-07-27T16:57:32.883Z,29.75
2022-07-27T17:00:00.084Z,30.23
2022-07-27T17:02:30.422Z,28.92
2022-07-27T17:04:57.270Z,28.61
2022-07-27T17:07:23.765Z,27.97
2022-07-27T17:09:50.171Z,28.27
2022-07-27T17:12:17.524Z,27.98
2022-07-27T17:14:44.792Z,29.13
2022-07-27T17:17:11.364Z,28.67
2022-07-27T17:19:37.825Z,29.01
2022-07-27T17:22:04.503Z,28.76
2022-07-27T17:24:33.891Z,30.16
2022-07-27T17:27:04.387Z,30.04
2022-07-27T17:29:30.820Z,29.98
2022-07-27T17:31:57.508Z,30.45
2022-07-27T17:34:23.996Z,30.49
2022-07-27T17:36:51.316Z,31.04
2022-07-27T17:39:18.811Z,30.23
2022-07-27T17:41:45.449Z,31.69
2022-07-27T17:44:12.100Z,31.71
2022-07-27T17:46:39.039Z,31.23
2022-07-27T17:49:05.756Z,31.21
2022-07-27T17:51:33.144Z,31.30
2022-07-27T17:54:01.427Z,31.26
2022-07-27T17:56:27.920Z,31.50
2022-07-27T17:58:54.289Z,31.19
2022-07-27T18:01:31.792Z,31.92
2022-07-27T18:04:07.243Z,32.54
2022-07-27T18:06:33.709Z,32.33
2022-07-27T18:09:00.402Z,32.43
2022-07-27T18:11:26.804Z,32.05
2022-07-27T18:13:53.215Z,31.91
2022-07-27T18:16:19.709Z,32.24
2022-07-27T18:18:46.302Z,33.03
2022-07-27T18:21:14.863Z,32.46
2022-07-27T18:23:41.570Z,33.30
2022-07-27T18:26:28.243Z,33.09
2022-07-27T18:29:04.329Z,32.79
2022-07-27T18:31:34.073Z,32.63
2022-07-27T18:34:02.351Z,32.67
2022-07-27T18:36:29.384Z,33.03
2022-07-27T18:38:55.887Z,32.55
2022-07-27T18:41:25.017Z,32.62
2022-07-27T18:43:51.562Z,33.24
2022-07-27T18:46:22.685Z,32.96
2022-07-27T18:48:49.958Z,33.24
2022-07-27T18:51:17.198Z,32.87
2022-07-27T18:53:46.667Z,33.10
2022-07-27T18:56:13.210Z,33.03
2022-07-27T18:58:40.808Z,33.42
2022-07-27T19:01:09.288Z,33.25
2022-07-27T19:03:37.201Z,33.22
2022-07-27T19:06:06.360Z,33.86
2022-07-27T19:08:35.108Z,33.52
2022-07-27T19:11:01.543Z,34.14
2022-07-27T19:13:28.023Z,34.08
2022-07-27T19:15:54.474Z,34.74
2022-07-27T19:18:20.986Z,34.43
2022-07-27T19:20:47.508Z,34.39
2022-07-27T19:23:14.153Z,35.09
2022-07-27T19:25:41.169Z,35.17
2022-07-27T19:28:07.549Z,35.51
2022-07-27T19:30:34.235Z,35.30
2022-07-27T19:33:07.442Z,35.31
2022-07-27T19:35:36.106Z,35.74
2022-07-27T19:38:13.727Z,36.22
2022-07-27T19:40:45.133Z,36.40
2022-07-27T19:43:13.309Z,35.80
2022-07-27T19:45:39.800Z,35.22
2022-07-27T19:48:06.669Z,35.41
2022-07-27T19:50:33.282Z,35.52
2022-07-27T19:53:00.673Z,36.05
2022-07-27T19:55:27.203Z,35.99
2022-07-27T19:57:53.695Z,36.34
2022-07-27T20:00:20.208Z,36.88
2022-07-27T20:02:48.235Z,37.33
2022-07-27T20:05:14.928Z,37.16
2022-07-27T20:07:42.069Z,37.26
2022-07-27T20:10:09.210Z,37.96
2022-07-27T20:12:35.903Z,38.24
2022-07-27T20:15:03.426Z,38.51
2022-07-27T20:17:35.560Z,38.80
2022-07-27T20:20:02.127Z,38.70
2022-07-27T20:22:28.609Z,38.02
2022-07-27T20:24:56.204Z,37.91
2022-07-27T20:27:22.604Z,37.91
2022-07-27T20:29:49.443Z,38.32
2022-07-27T20:32:16.113Z,38.90
2022-07-27T20:34:42.541Z,38.41
2022-07-27T20:37:09.781Z,38.72
2022-07-27T20:39:36.220Z,38.09
2022-07-27T20:42:02.704Z,38.70
2022-07-27T20:44:29.143Z,39.06
2022-07-27T20:46:55.559Z,39.45
2022-07-27T20:49:22.058Z,39.68
2022-07-27T20:51:48.553Z,39.82
2022-07-27T20:54:15.541Z,40.08
2022-07-27T20:56:41.981Z,40.32
2022-07-27T20:59:08.987Z,39.31
2022-07-27T21:01:42.750Z,39.73
2022-07-27T21:04:10.184Z,39.99
2022-07-27T21:06:36.597Z,39.71
2022-07-27T21:09:03.199Z,40.35
2022-07-27T21:11:29.851Z,40.41
2022-07-27T21:13:56.299Z,40.14
2022-07-27T21:16:22.775Z,40.29
2022-07-27T21:18:49.254Z,40.42
2022-07-27T21:21:15.754Z,40.47
2022-07-27T21:24:00.967Z,40.57
2022-07-27T21:26:29.078Z,41.01
2022-07-27T21:28:56.309Z,41.32
2022-07-27T21:31:22.795Z,41.20
2022-07-27T21:33:49.470Z,41.09
2022-07-27T21:36:16.231Z,41.47
2022-07-27T21:38:42.702Z,41.50
2022-07-27T21:41:09.105Z,42.13
2022-07-27T21:43:35.566Z,41.48
2022-07-27T21:46:02.085Z,41.60
2022-07-27T21:48:28.527Z,41.72
2022-07-27T21:50:55.011Z,41.79
2022-07-27T21:53:21.422Z,41.54
2022-07-27T21:55:48.655Z,41.42
2022-07-27T21:58:15.437Z,41.31
2022-07-27T22:00:42.152Z,41.12
2022-07-27T22:03:09.187Z,41.68
2022-07-27T22:05:35.716Z,40.86
2022-07-27T22:08:02.151Z,40.77
2022-07-27T22:10:30.473Z,40.84
2022-07-27T22:12:58.402Z,41.09
2022-07-27T22:15:25.863Z,41.36
2022-07-27T22:17:52.727Z,41.40
2022-07-27T22:20:20.919Z,41.26
2022-07-27T22:22:48.390Z,41.77
2022-07-27T22:25:15.409Z,41.62
2022-07-27T22:27:41.978Z,41.48
2022-07-27T22:30:09.086Z,41.62
2022-07-27T22:32:35.833Z,41.79
2022-07-27T22:35:03.397Z,41.99
2022-07-27T22:37:29.852Z,42.06
2022-07-27T22:39:56.283Z,41.66
2022-07-27T22:42:22.787Z,41.65
2022-07-27T22:44:49.361Z,41.74
2022-07-27T22:47:16.206Z,42.02
2022-07-27T22:49:42.597Z,42.63
2022-07-27T22:52:09.073Z,42.67
2022-07-27T22:54:37.533Z,42.92
2022-07-27T22:57:05.854Z,42.69
2022-07-27T22:59:32.785Z,42.74
2022-07-27T23:01:59.318Z,42.63
2022-07-27T23:04:25.801Z,42.48
2022-07-27T23:06:52.360Z,43.06
2022-07-27T23:09:18.819Z,42.38
2022-07-27T23:11:45.671Z,42.71
2022-07-27T23:14:13.164Z,42.64
2022-07-27T23:16:40.575Z,43.38
2022-07-27T23:19:07.157Z,43.30
2022-07-27T23:21:33.707Z,43.25
2022-07-27T23:24:00.780Z,42.84
2022-07-27T23:26:27.442Z,43.50
2022-07-27T23:28:54.010Z,43.07
2022-07-27T23:31:21.222Z,42.91
2022-07-27T23:33:47.797Z,44.08
2022-07-27T23:36:14.619Z,43.73
2022-07-27T23:38:41.470Z,43.54
2022-07-27T23:41:08.264Z,43.35
2022-07-27T23:43:34.737Z,43.08
2022-07-27T23:46:01.189Z,42.87
2022-07-27T23:48:28.648Z,43.52
2022-07-27T23:50:55.942Z,42.85
2022-07-27T23:53:22.640Z,42.05
2022-07-27T23:55:49.030Z,42.33
2022-07-27T23:58:15.453Z,41.98
